PBD9225 USDD-UUWW
Flight info
| Callsign | PBD9225 |
|---|---|
| Flight time | 2h 53m |
| Altitude | 34000 |
| Route | SUTOT1M SUTOT T816 UHT T791 ADMON/K0863F360 T791 GONIB T187 NAZOL T791 KTL T187 ROMTA ROMTA3B |
| Aircraft | B738/M-SDE2E3FGHIRWXY/LB1 |
Departure
| Time | 2026-04-18 02:30 |
|---|---|
| Airport | Salekhard Airport (USDD) |
Arrival
| Time | 2026-04-18 05:24 |
|---|---|
| Airport | Vnukovo International Airport (UUWW) |
| Time | Latitude | Longitude | Altitude | Speed | Heading |
|---|---|---|---|---|---|
| 2026-04-18 02:18 | 66.59057 | 66.59016 | 225 ft | 0 kts | 46° |
| 2026-04-18 02:23 | 66.59058 | 66.59018 | 225 ft | 1 kts | 46° |
| 2026-04-18 02:23 | 66.59066 | 66.59045 | 225 ft | 2 kts | 58° |
| 2026-04-18 02:24 | 66.59071 | 66.59077 | 225 ft | 1 kts | 82° |
| 2026-04-18 02:24 | 66.59070 | 66.59106 | 225 ft | 0 kts | 97° |
| 2026-04-18 02:24 | 66.59069 | 66.59117 | 225 ft | 2 kts | 97° |
| 2026-04-18 02:24 | 66.59065 | 66.59199 | 225 ft | 6 kts | 97° |
| 2026-04-18 02:25 | 66.59042 | 66.59312 | 225 ft | 8 kts | 135° |
| 2026-04-18 02:25 | 66.59007 | 66.59397 | 225 ft | 5 kts | 137° |
| 2026-04-18 02:25 | 66.58984 | 66.59451 | 225 ft | 3 kts | 138° |
| 2026-04-18 02:25 | 66.58955 | 66.59510 | 225 ft | 6 kts | 143° |
| 2026-04-18 02:26 | 66.58907 | 66.59593 | 225 ft | 9 kts | 148° |
| 2026-04-18 02:26 | 66.58858 | 66.59666 | 225 ft | 7 kts | 152° |
| 2026-04-18 02:26 | 66.58820 | 66.59714 | 225 ft | 5 kts | 157° |
| 2026-04-18 02:26 | 66.58746 | 66.59655 | 225 ft | 17 kts | 234° |
| 2026-04-18 02:27 | 66.58695 | 66.59409 | 225 ft | 14 kts | 245° |
| 2026-04-18 02:27 | 66.58655 | 66.59203 | 225 ft | 11 kts | 244° |
| 2026-04-18 02:27 | 66.58621 | 66.59036 | 225 ft | 9 kts | 242° |
| 2026-04-18 02:27 | 66.58592 | 66.58904 | 225 ft | 7 kts | 243° |
| 2026-04-18 02:28 | 66.58563 | 66.58762 | 225 ft | 8 kts | 243° |
| 2026-04-18 02:28 | 66.58540 | 66.58646 | 225 ft | 6 kts | 249° |
| 2026-04-18 02:28 | 66.58536 | 66.58540 | 225 ft | 6 kts | 275° |
| 2026-04-18 02:28 | 66.58527 | 66.58448 | 225 ft | 8 kts | 211° |
| 2026-04-18 02:29 | 66.58511 | 66.58540 | 225 ft | 4 kts | 44° |
| 2026-04-18 02:29 | 66.58518 | 66.58563 | 225 ft | 0 kts | 57° |
| 2026-04-18 02:29 | 66.58587 | 66.58866 | 225 ft | 52 kts | 62° |
| 2026-04-18 02:30 | 66.58857 | 66.60119 | 225 ft | 110 kts | 62° |
| 2026-04-18 02:30 | 66.59307 | 66.62196 | 227 ft | 157 kts | 61° |
| 2026-04-18 02:30 | 66.59825 | 66.64793 | 582 ft | 169 kts | 66° |
| 2026-04-18 02:30 | 66.60352 | 66.67496 | 1167 ft | 171 kts | 47° |
| 2026-04-18 02:31 | 66.61357 | 66.69090 | 1698 ft | 182 kts | 18° |
| 2026-04-18 02:31 | 66.62636 | 66.69345 | 2202 ft | 201 kts | 356° |
| 2026-04-18 02:31 | 66.63993 | 66.67787 | 2631 ft | 234 kts | 319° |
| 2026-04-18 02:31 | 66.64777 | 66.64226 | 3483 ft | 244 kts | 285° |
| 2026-04-18 02:32 | 66.64881 | 66.59789 | 4141 ft | 260 kts | 260° |
| 2026-04-18 02:32 | 66.64221 | 66.55782 | 5233 ft | 251 kts | 230° |
| 2026-04-18 02:32 | 66.62942 | 66.52743 | 5953 ft | 258 kts | 217° |
| 2026-04-18 02:32 | 66.61621 | 66.49627 | 6779 ft | 265 kts | 226° |
| 2026-04-18 02:33 | 66.60520 | 66.45959 | 7666 ft | 268 kts | 234° |
| 2026-04-18 02:33 | 66.59544 | 66.41962 | 8520 ft | 270 kts | 237° |
| 2026-04-18 02:33 | 66.58617 | 66.37919 | 9357 ft | 270 kts | 237° |
| 2026-04-18 02:33 | 66.57691 | 66.33820 | 10177 ft | 271 kts | 236° |
| 2026-04-18 02:34 | 66.56756 | 66.29673 | 10783 ft | 279 kts | 236° |
| 2026-04-18 02:34 | 66.55743 | 66.25196 | 10945 ft | 304 kts | 237° |
| 2026-04-18 02:34 | 66.54685 | 66.20506 | 11339 ft | 317 kts | 237° |
| 2026-04-18 02:34 | 66.53592 | 66.15646 | 12005 ft | 321 kts | 237° |
| 2026-04-18 02:35 | 66.52489 | 66.10746 | 12663 ft | 324 kts | 237° |
| 2026-04-18 02:35 | 66.51376 | 66.05816 | 13308 ft | 327 kts | 237° |
| 2026-04-18 02:35 | 66.50259 | 66.00883 | 13934 ft | 330 kts | 237° |
| 2026-04-18 02:35 | 66.49123 | 65.95882 | 14542 ft | 333 kts | 237° |
| 2026-04-18 02:36 | 66.47977 | 65.90848 | 15143 ft | 336 kts | 237° |
| 2026-04-18 02:36 | 66.46805 | 65.85709 | 15729 ft | 339 kts | 237° |
| 2026-04-18 02:36 | 66.45622 | 65.80539 | 16306 ft | 342 kts | 237° |
| 2026-04-18 02:36 | 66.44440 | 65.75382 | 16863 ft | 345 kts | 237° |
| 2026-04-18 02:37 | 66.43249 | 65.70200 | 17400 ft | 348 kts | 237° |
| 2026-04-18 02:37 | 66.42038 | 65.64945 | 17936 ft | 351 kts | 237° |
| 2026-04-18 02:37 | 66.40797 | 65.59630 | 18458 ft | 354 kts | 238° |
| 2026-04-18 02:37 | 66.39662 | 65.54137 | 18960 ft | 359 kts | 242° |
| 2026-04-18 02:38 | 66.38612 | 65.48453 | 19470 ft | 362 kts | 243° |
| 2026-04-18 02:38 | 66.37566 | 65.42708 | 19944 ft | 365 kts | 243° |
| 2026-04-18 02:38 | 66.36511 | 65.36933 | 20428 ft | 368 kts | 243° |
| 2026-04-18 02:38 | 66.35450 | 65.31157 | 20899 ft | 370 kts | 242° |
| 2026-04-18 02:39 | 66.34364 | 65.25271 | 21353 ft | 373 kts | 242° |
| 2026-04-18 02:39 | 66.33284 | 65.19442 | 21789 ft | 376 kts | 242° |
| 2026-04-18 02:39 | 66.32182 | 65.13512 | 22224 ft | 378 kts | 242° |
| 2026-04-18 02:39 | 66.31077 | 65.07575 | 22644 ft | 381 kts | 242° |
| 2026-04-18 02:40 | 66.29944 | 65.01519 | 23053 ft | 384 kts | 242° |
| 2026-04-18 02:40 | 66.28812 | 64.95496 | 23427 ft | 387 kts | 242° |
| 2026-04-18 02:40 | 66.27675 | 64.89470 | 23787 ft | 390 kts | 242° |
| 2026-04-18 02:40 | 66.26512 | 64.83320 | 24145 ft | 394 kts | 243° |
| 2026-04-18 02:41 | 66.25342 | 64.77146 | 24491 ft | 397 kts | 243° |
| 2026-04-18 02:41 | 66.24159 | 64.70903 | 24874 ft | 399 kts | 243° |
| 2026-04-18 02:41 | 66.22972 | 64.64656 | 25221 ft | 402 kts | 243° |
| 2026-04-18 02:41 | 66.21776 | 64.58379 | 25577 ft | 404 kts | 243° |
| 2026-04-18 02:42 | 66.20577 | 64.52113 | 25913 ft | 407 kts | 243° |
| 2026-04-18 02:42 | 66.19355 | 64.45745 | 26251 ft | 409 kts | 243° |
| 2026-04-18 02:42 | 66.18128 | 64.39377 | 26578 ft | 411 kts | 243° |
| 2026-04-18 02:42 | 66.16883 | 64.32937 | 26903 ft | 414 kts | 242° |
| 2026-04-18 02:43 | 66.15637 | 64.26513 | 27220 ft | 416 kts | 242° |
| 2026-04-18 02:43 | 66.14386 | 64.20088 | 27519 ft | 418 kts | 242° |
| 2026-04-18 02:43 | 66.13120 | 64.13599 | 27827 ft | 420 kts | 242° |
| 2026-04-18 02:43 | 66.11842 | 64.07079 | 28112 ft | 423 kts | 242° |
| 2026-04-18 02:44 | 66.10563 | 64.00563 | 28404 ft | 425 kts | 242° |
| 2026-04-18 02:44 | 66.09253 | 63.93917 | 28682 ft | 427 kts | 242° |
| 2026-04-18 02:44 | 66.07967 | 63.87414 | 28956 ft | 429 kts | 242° |
| 2026-04-18 02:44 | 66.06639 | 63.80717 | 29223 ft | 431 kts | 242° |
| 2026-04-18 02:45 | 66.05320 | 63.74085 | 29488 ft | 433 kts | 242° |
| 2026-04-18 02:45 | 66.03988 | 63.67412 | 29739 ft | 435 kts | 242° |
| 2026-04-18 02:45 | 66.02649 | 63.60723 | 29993 ft | 437 kts | 242° |
| 2026-04-18 02:45 | 66.01306 | 63.54038 | 30232 ft | 439 kts | 242° |
| 2026-04-18 02:46 | 65.99947 | 63.47291 | 30516 ft | 439 kts | 242° |
| 2026-04-18 02:46 | 65.98595 | 63.40602 | 30827 ft | 439 kts | 242° |
| 2026-04-18 02:46 | 65.97244 | 63.33936 | 31135 ft | 439 kts | 241° |
| 2026-04-18 02:46 | 65.95864 | 63.27160 | 31459 ft | 439 kts | 241° |
| 2026-04-18 02:47 | 65.94501 | 63.20488 | 31766 ft | 438 kts | 241° |
| 2026-04-18 02:47 | 65.93137 | 63.13829 | 32067 ft | 438 kts | 241° |
| 2026-04-18 02:47 | 65.91768 | 63.07169 | 32317 ft | 439 kts | 241° |
| 2026-04-18 02:47 | 65.90389 | 63.00489 | 32516 ft | 441 kts | 241° |
| 2026-04-18 02:48 | 65.89009 | 62.93830 | 32726 ft | 442 kts | 242° |
| 2026-04-18 02:48 | 65.87605 | 62.87074 | 32942 ft | 444 kts | 242° |
| 2026-04-18 02:48 | 65.86202 | 62.80333 | 33216 ft | 443 kts | 242° |
| 2026-04-18 02:48 | 65.84813 | 62.73669 | 33483 ft | 443 kts | 242° |
| 2026-04-18 02:49 | 65.83401 | 62.66922 | 33752 ft | 443 kts | 242° |
| 2026-04-18 02:49 | 65.82010 | 62.60294 | 34010 ft | 443 kts | 242° |
| 2026-04-18 02:49 | 65.80595 | 62.53579 | 34260 ft | 443 kts | 242° |
| 2026-04-18 02:50 | 65.77753 | 62.40153 | 34316 ft | 448 kts | 242° |
| 2026-04-18 02:50 | 65.74890 | 62.26716 | 34317 ft | 444 kts | 241° |
| 2026-04-18 02:51 | 65.72050 | 62.13473 | 34317 ft | 443 kts | 241° |
| 2026-04-18 02:51 | 65.69197 | 62.00151 | 34317 ft | 444 kts | 241° |
| 2026-04-18 02:52 | 65.66354 | 61.86810 | 34317 ft | 444 kts | 241° |
| 2026-04-18 02:52 | 65.63502 | 61.73515 | 34317 ft | 444 kts | 241° |
| 2026-04-18 02:53 | 65.60630 | 61.60215 | 34317 ft | 444 kts | 241° |
| 2026-04-18 02:53 | 65.57769 | 61.47047 | 34317 ft | 444 kts | 241° |
| 2026-04-18 02:54 | 65.54871 | 61.33798 | 34317 ft | 444 kts | 240° |
| 2026-04-18 02:54 | 65.51978 | 61.20657 | 34317 ft | 444 kts | 240° |
| 2026-04-18 02:55 | 65.49059 | 61.07493 | 34317 ft | 446 kts | 240° |
| 2026-04-18 02:55 | 65.46104 | 60.94253 | 34318 ft | 450 kts | 241° |
| 2026-04-18 02:56 | 65.43134 | 60.81002 | 34316 ft | 450 kts | 241° |
| 2026-04-18 02:56 | 65.38675 | 60.61250 | 34317 ft | 448 kts | 241° |
| 2026-04-18 02:57 | 65.35686 | 60.48119 | 34317 ft | 449 kts | 241° |
| 2026-04-18 02:57 | 65.32685 | 60.35016 | 34317 ft | 449 kts | 241° |
| 2026-04-18 02:58 | 65.29667 | 60.21921 | 34317 ft | 449 kts | 240° |
| 2026-04-18 02:58 | 65.26649 | 60.08904 | 34317 ft | 449 kts | 240° |
| 2026-04-18 02:59 | 65.23594 | 59.95811 | 34317 ft | 449 kts | 240° |
| 2026-04-18 02:59 | 65.20563 | 59.82896 | 34317 ft | 449 kts | 240° |
| 2026-04-18 03:00 | 65.17494 | 59.69904 | 34317 ft | 449 kts | 240° |
| 2026-04-18 03:00 | 65.14434 | 59.57021 | 34317 ft | 449 kts | 240° |
| 2026-04-18 03:01 | 65.11340 | 59.44072 | 34317 ft | 449 kts | 240° |
| 2026-04-18 03:01 | 65.08254 | 59.31234 | 34317 ft | 449 kts | 239° |
| 2026-04-18 03:02 | 65.05132 | 59.18325 | 34281 ft | 449 kts | 239° |
| 2026-04-18 03:02 | 65.02013 | 59.05499 | 34155 ft | 451 kts | 239° |
| 2026-04-18 03:03 | 64.98859 | 58.92615 | 34019 ft | 453 kts | 239° |
| 2026-04-18 03:03 | 64.95670 | 58.79756 | 33969 ft | 458 kts | 239° |
| 2026-04-18 03:04 | 64.92431 | 58.66779 | 33965 ft | 460 kts | 240° |
| 2026-04-18 03:04 | 64.89188 | 58.53684 | 33965 ft | 459 kts | 240° |
| 2026-04-18 03:05 | 64.85983 | 58.40835 | 33965 ft | 458 kts | 240° |
| 2026-04-18 03:05 | 64.82725 | 58.27885 | 33966 ft | 459 kts | 239° |
| 2026-04-18 03:06 | 64.79466 | 58.15015 | 33966 ft | 459 kts | 239° |
| 2026-04-18 03:06 | 64.76197 | 58.02193 | 33966 ft | 459 kts | 239° |
| 2026-04-18 03:07 | 64.72916 | 57.89402 | 33908 ft | 458 kts | 239° |
| 2026-04-18 03:07 | 64.69627 | 57.76656 | 33912 ft | 456 kts | 239° |
| 2026-04-18 03:08 | 64.66295 | 57.63965 | 33912 ft | 457 kts | 238° |
| 2026-04-18 03:08 | 64.62963 | 57.51396 | 33912 ft | 458 kts | 238° |
| 2026-04-18 03:09 | 64.59611 | 57.38819 | 33911 ft | 457 kts | 238° |
| 2026-04-18 03:09 | 64.56235 | 57.26212 | 33912 ft | 457 kts | 237° |
| 2026-04-18 03:10 | 64.52851 | 57.13644 | 33912 ft | 457 kts | 237° |
| 2026-04-18 03:10 | 64.49470 | 57.01170 | 33912 ft | 460 kts | 238° |
| 2026-04-18 03:11 | 64.46014 | 56.88507 | 33912 ft | 468 kts | 238° |
| 2026-04-18 03:11 | 64.42519 | 56.75747 | 33911 ft | 470 kts | 238° |
| 2026-04-18 03:12 | 64.39027 | 56.63059 | 33911 ft | 467 kts | 238° |
| 2026-04-18 03:12 | 64.35515 | 56.50369 | 33912 ft | 467 kts | 238° |
| 2026-04-18 03:13 | 64.32031 | 56.37753 | 33912 ft | 468 kts | 239° |
| 2026-04-18 03:13 | 64.28538 | 56.25158 | 33912 ft | 468 kts | 238° |
| 2026-04-18 03:14 | 64.25020 | 56.12548 | 33912 ft | 468 kts | 238° |
| 2026-04-18 03:14 | 64.21500 | 56.00010 | 33912 ft | 468 kts | 238° |
| 2026-04-18 03:15 | 64.17949 | 55.87434 | 33912 ft | 468 kts | 238° |
| 2026-04-18 03:15 | 64.14419 | 55.75007 | 33912 ft | 468 kts | 238° |
| 2026-04-18 03:16 | 64.10843 | 55.62488 | 33912 ft | 468 kts | 238° |
| 2026-04-18 03:16 | 64.07280 | 55.50085 | 33912 ft | 468 kts | 238° |
| 2026-04-18 03:17 | 64.03696 | 55.37679 | 33912 ft | 468 kts | 238° |
| 2026-04-18 03:17 | 64.00106 | 55.25308 | 33912 ft | 468 kts | 237° |
| 2026-04-18 03:18 | 63.96514 | 55.13007 | 33912 ft | 468 kts | 237° |
| 2026-04-18 03:18 | 63.92895 | 55.00741 | 33912 ft | 469 kts | 237° |
| 2026-04-18 03:19 | 63.89231 | 54.88387 | 33911 ft | 469 kts | 237° |
| 2026-04-18 03:19 | 63.85583 | 54.76138 | 33912 ft | 469 kts | 237° |
| 2026-04-18 03:20 | 63.81943 | 54.63984 | 33911 ft | 468 kts | 237° |
| 2026-04-18 03:20 | 63.78269 | 54.51785 | 33912 ft | 469 kts | 237° |
| 2026-04-18 03:21 | 63.74570 | 54.39574 | 33912 ft | 469 kts | 237° |
| 2026-04-18 03:21 | 63.70875 | 54.27436 | 33911 ft | 469 kts | 236° |
| 2026-04-18 03:22 | 63.67171 | 54.15330 | 33921 ft | 469 kts | 236° |
| 2026-04-18 03:22 | 63.65311 | 54.09272 | 34048 ft | 468 kts | 236° |
| 2026-04-18 03:22 | 63.63454 | 54.03246 | 34048 ft | 471 kts | 236° |
| 2026-04-18 03:23 | 63.59691 | 53.91087 | 34045 ft | 471 kts | 236° |
| 2026-04-18 03:23 | 63.55946 | 53.79044 | 34046 ft | 469 kts | 237° |
| 2026-04-18 03:24 | 63.52423 | 53.66740 | 34047 ft | 469 kts | 239° |
| 2026-04-18 03:24 | 63.48936 | 53.54285 | 34047 ft | 470 kts | 239° |
| 2026-04-18 03:25 | 63.45450 | 53.41944 | 34047 ft | 469 kts | 239° |
| 2026-04-18 03:25 | 63.41927 | 53.29567 | 34047 ft | 469 kts | 238° |
| 2026-04-18 03:26 | 63.38410 | 53.17287 | 34047 ft | 470 kts | 238° |
| 2026-04-18 03:26 | 63.34879 | 53.05038 | 34046 ft | 469 kts | 238° |
| 2026-04-18 03:27 | 63.31353 | 52.92879 | 34047 ft | 468 kts | 238° |
| 2026-04-18 03:27 | 63.27801 | 52.80699 | 34047 ft | 467 kts | 238° |
| 2026-04-18 03:28 | 63.24278 | 52.68692 | 34047 ft | 466 kts | 238° |
| 2026-04-18 03:28 | 63.20711 | 52.56604 | 34047 ft | 467 kts | 238° |
| 2026-04-18 03:29 | 63.17168 | 52.44661 | 34047 ft | 467 kts | 238° |
| 2026-04-18 03:29 | 63.13560 | 52.32620 | 34046 ft | 466 kts | 237° |
| 2026-04-18 03:30 | 63.09958 | 52.20664 | 34046 ft | 466 kts | 237° |
| 2026-04-18 03:30 | 63.06353 | 52.08762 | 34047 ft | 467 kts | 237° |
| 2026-04-18 03:31 | 63.02733 | 51.96875 | 34047 ft | 467 kts | 237° |
| 2026-04-18 03:31 | 62.99103 | 51.85016 | 34047 ft | 467 kts | 237° |
| 2026-04-18 03:32 | 62.95457 | 51.73168 | 34047 ft | 467 kts | 237° |
| 2026-04-18 03:32 | 62.91814 | 51.61393 | 34047 ft | 467 kts | 237° |
| 2026-04-18 03:33 | 62.88137 | 51.49574 | 34047 ft | 467 kts | 237° |
| 2026-04-18 03:33 | 62.84470 | 51.37840 | 34046 ft | 467 kts | 237° |
| 2026-04-18 03:34 | 62.80798 | 51.26147 | 34047 ft | 467 kts | 236° |
| 2026-04-18 03:34 | 62.77085 | 51.14384 | 34047 ft | 467 kts | 236° |
| 2026-04-18 03:35 | 62.73396 | 51.02776 | 34047 ft | 467 kts | 236° |
| 2026-04-18 03:35 | 62.69653 | 50.91130 | 34047 ft | 468 kts | 237° |
| 2026-04-18 03:36 | 62.65927 | 50.79586 | 34047 ft | 469 kts | 237° |
| 2026-04-18 03:36 | 62.62164 | 50.67972 | 34046 ft | 468 kts | 237° |
| 2026-04-18 03:37 | 62.58420 | 50.56479 | 34047 ft | 468 kts | 237° |
| 2026-04-18 03:37 | 62.54644 | 50.44945 | 34047 ft | 469 kts | 237° |
| 2026-04-18 03:38 | 62.50872 | 50.33337 | 34047 ft | 469 kts | 236° |
| 2026-04-18 03:38 | 62.47116 | 50.21800 | 34047 ft | 469 kts | 236° |
| 2026-04-18 03:39 | 62.43361 | 50.10327 | 34046 ft | 469 kts | 236° |
| 2026-04-18 03:39 | 62.39564 | 49.98794 | 34047 ft | 469 kts | 236° |
| 2026-04-18 03:40 | 62.35787 | 49.87386 | 34047 ft | 469 kts | 236° |
| 2026-04-18 03:40 | 62.31972 | 49.75919 | 34047 ft | 469 kts | 236° |
| 2026-04-18 03:41 | 62.28173 | 49.64556 | 34047 ft | 469 kts | 236° |
| 2026-04-18 03:41 | 62.24365 | 49.53231 | 34047 ft | 469 kts | 236° |
| 2026-04-18 03:42 | 62.20542 | 49.41914 | 34047 ft | 469 kts | 236° |
| 2026-04-18 03:42 | 62.16678 | 49.30527 | 34046 ft | 469 kts | 235° |
| 2026-04-18 03:43 | 62.12855 | 49.19312 | 34046 ft | 469 kts | 235° |
| 2026-04-18 03:43 | 62.09018 | 49.08084 | 34048 ft | 469 kts | 235° |
| 2026-04-18 03:44 | 62.05160 | 48.96789 | 34046 ft | 466 kts | 235° |
| 2026-04-18 03:44 | 62.01371 | 48.85756 | 34046 ft | 463 kts | 235° |
| 2026-04-18 03:45 | 61.97553 | 48.74702 | 34047 ft | 464 kts | 235° |
| 2026-04-18 03:45 | 61.93705 | 48.63614 | 34048 ft | 466 kts | 235° |
| 2026-04-18 03:46 | 61.89836 | 48.52520 | 34046 ft | 466 kts | 235° |
| 2026-04-18 03:46 | 61.85984 | 48.41522 | 34046 ft | 464 kts | 235° |
| 2026-04-18 03:47 | 61.82116 | 48.30539 | 34048 ft | 465 kts | 234° |
| 2026-04-18 03:47 | 61.78232 | 48.19553 | 34047 ft | 466 kts | 234° |
| 2026-04-18 03:48 | 61.74346 | 48.08612 | 34047 ft | 466 kts | 234° |
| 2026-04-18 03:48 | 61.70455 | 47.97712 | 34046 ft | 465 kts | 234° |
| 2026-04-18 03:49 | 61.66524 | 47.86756 | 34047 ft | 465 kts | 234° |
| 2026-04-18 03:49 | 61.62633 | 47.75965 | 34047 ft | 466 kts | 234° |
| 2026-04-18 03:50 | 61.58689 | 47.65080 | 34047 ft | 466 kts | 234° |
| 2026-04-18 03:50 | 61.54760 | 47.54282 | 34047 ft | 466 kts | 234° |
| 2026-04-18 03:51 | 61.50808 | 47.43486 | 34046 ft | 464 kts | 234° |
| 2026-04-18 03:51 | 61.46868 | 47.32810 | 34046 ft | 464 kts | 233° |
| 2026-04-18 03:52 | 61.42891 | 47.22061 | 34047 ft | 465 kts | 233° |
| 2026-04-18 03:52 | 61.38926 | 47.11403 | 34047 ft | 465 kts | 233° |
| 2026-04-18 03:53 | 61.34948 | 47.00769 | 34047 ft | 465 kts | 233° |
| 2026-04-18 03:53 | 61.30974 | 46.90216 | 34046 ft | 462 kts | 233° |
| 2026-04-18 03:54 | 61.26988 | 46.79671 | 34047 ft | 460 kts | 233° |
| 2026-04-18 03:54 | 61.23095 | 46.69151 | 34045 ft | 457 kts | 238° |
| 2026-04-18 03:55 | 61.19633 | 46.58065 | 34047 ft | 458 kts | 239° |
| 2026-04-18 03:55 | 61.16200 | 46.46981 | 34046 ft | 456 kts | 239° |
| 2026-04-18 03:56 | 61.12741 | 46.35914 | 34048 ft | 458 kts | 239° |
| 2026-04-18 03:56 | 61.09268 | 46.24883 | 34047 ft | 458 kts | 238° |
| 2026-04-18 03:57 | 61.04013 | 46.08305 | 34046 ft | 458 kts | 238° |
| 2026-04-18 03:58 | 61.00513 | 45.97346 | 34048 ft | 460 kts | 238° |
| 2026-04-18 03:58 | 60.96985 | 45.86352 | 34045 ft | 459 kts | 238° |
| 2026-04-18 03:59 | 60.93457 | 45.75419 | 34006 ft | 458 kts | 238° |
| 2026-04-18 03:59 | 60.89919 | 45.64508 | 33943 ft | 459 kts | 238° |
| 2026-04-18 04:00 | 60.86369 | 45.53602 | 33911 ft | 460 kts | 238° |
| 2026-04-18 04:00 | 60.82796 | 45.42680 | 33911 ft | 459 kts | 238° |
| 2026-04-18 04:01 | 60.79215 | 45.31786 | 33912 ft | 459 kts | 237° |
| 2026-04-18 04:01 | 60.75639 | 45.20953 | 33911 ft | 460 kts | 237° |
| 2026-04-18 04:02 | 60.72042 | 45.10122 | 33911 ft | 460 kts | 237° |
| 2026-04-18 04:02 | 60.68119 | 44.99878 | 33913 ft | 461 kts | 233° |
| 2026-04-18 04:03 | 60.64042 | 44.89714 | 33912 ft | 460 kts | 233° |
| 2026-04-18 04:03 | 60.60023 | 44.79651 | 33912 ft | 460 kts | 234° |
| 2026-04-18 04:04 | 60.55987 | 44.69539 | 33912 ft | 460 kts | 234° |
| 2026-04-18 04:04 | 60.51942 | 44.59432 | 33911 ft | 458 kts | 234° |
| 2026-04-18 04:05 | 60.47939 | 44.49451 | 33914 ft | 458 kts | 234° |
| 2026-04-18 04:05 | 60.43890 | 44.39472 | 33911 ft | 461 kts | 234° |
| 2026-04-18 04:06 | 60.39836 | 44.29490 | 33911 ft | 459 kts | 233° |
| 2026-04-18 04:06 | 60.35766 | 44.19476 | 33910 ft | 458 kts | 233° |
| 2026-04-18 04:07 | 60.31732 | 44.09599 | 33912 ft | 460 kts | 233° |
| 2026-04-18 04:07 | 60.27654 | 43.99667 | 33912 ft | 461 kts | 233° |
| 2026-04-18 04:08 | 60.23547 | 43.89682 | 33933 ft | 460 kts | 233° |
| 2026-04-18 04:08 | 60.21527 | 43.84776 | 34245 ft | 455 kts | 233° |
| 2026-04-18 04:08 | 60.19464 | 43.79808 | 34278 ft | 459 kts | 233° |
| 2026-04-18 04:09 | 60.15358 | 43.69937 | 34286 ft | 462 kts | 233° |
| 2026-04-18 04:09 | 60.11242 | 43.60074 | 34289 ft | 459 kts | 233° |
| 2026-04-18 04:10 | 60.07129 | 43.50254 | 34289 ft | 458 kts | 233° |
| 2026-04-18 04:10 | 60.03019 | 43.40501 | 34292 ft | 461 kts | 233° |
| 2026-04-18 04:11 | 59.98859 | 43.30667 | 34288 ft | 460 kts | 232° |
| 2026-04-18 04:11 | 59.94738 | 43.20984 | 34290 ft | 458 kts | 232° |
| 2026-04-18 04:12 | 59.90598 | 43.11276 | 34290 ft | 461 kts | 232° |
| 2026-04-18 04:12 | 59.86433 | 43.01556 | 34288 ft | 457 kts | 233° |
| 2026-04-18 04:13 | 59.82325 | 42.92005 | 34291 ft | 455 kts | 233° |
| 2026-04-18 04:13 | 59.78183 | 42.82413 | 34292 ft | 459 kts | 232° |
| 2026-04-18 04:14 | 59.74029 | 42.72818 | 34288 ft | 457 kts | 233° |
| 2026-04-18 04:14 | 59.69836 | 42.63244 | 34289 ft | 460 kts | 232° |
| 2026-04-18 04:15 | 59.65633 | 42.53659 | 34291 ft | 459 kts | 233° |
| 2026-04-18 04:15 | 59.61472 | 42.44151 | 34290 ft | 459 kts | 232° |
| 2026-04-18 04:16 | 59.57294 | 42.34694 | 34288 ft | 457 kts | 232° |
| 2026-04-18 04:16 | 59.53117 | 42.25252 | 34290 ft | 456 kts | 232° |
| 2026-04-18 04:17 | 59.48921 | 42.15793 | 34292 ft | 458 kts | 232° |
| 2026-04-18 04:17 | 59.44722 | 42.06375 | 34288 ft | 458 kts | 232° |
| 2026-04-18 04:18 | 59.40534 | 41.97045 | 34289 ft | 457 kts | 232° |
| 2026-04-18 04:18 | 59.36337 | 41.87712 | 34290 ft | 457 kts | 232° |
| 2026-04-18 04:19 | 59.32100 | 41.78338 | 34291 ft | 459 kts | 232° |
| 2026-04-18 04:19 | 59.27851 | 41.68975 | 34290 ft | 458 kts | 232° |
| 2026-04-18 04:20 | 59.23629 | 41.59710 | 34290 ft | 458 kts | 232° |
| 2026-04-18 04:20 | 59.19363 | 41.50388 | 34292 ft | 457 kts | 232° |
| 2026-04-18 04:21 | 59.15154 | 41.41221 | 34291 ft | 457 kts | 232° |
| 2026-04-18 04:21 | 59.10876 | 41.31958 | 34291 ft | 458 kts | 231° |
| 2026-04-18 04:22 | 59.06599 | 41.22738 | 34288 ft | 459 kts | 231° |
| 2026-04-18 04:22 | 59.02337 | 41.13569 | 34289 ft | 457 kts | 231° |
| 2026-04-18 04:23 | 58.98059 | 41.04405 | 34291 ft | 458 kts | 231° |
| 2026-04-18 04:23 | 58.95909 | 40.99810 | 34080 ft | 465 kts | 231° |
| 2026-04-18 04:23 | 58.93716 | 40.95145 | 33928 ft | 462 kts | 231° |
| 2026-04-18 04:24 | 58.89436 | 40.86067 | 33940 ft | 458 kts | 231° |
| 2026-04-18 04:24 | 58.85109 | 40.76919 | 33940 ft | 464 kts | 232° |
| 2026-04-18 04:25 | 58.80732 | 40.67688 | 33937 ft | 464 kts | 232° |
| 2026-04-18 04:25 | 58.76345 | 40.58475 | 33937 ft | 466 kts | 232° |
| 2026-04-18 04:26 | 58.71961 | 40.49308 | 33937 ft | 463 kts | 232° |
| 2026-04-18 04:26 | 58.67598 | 40.40229 | 33939 ft | 461 kts | 232° |
| 2026-04-18 04:27 | 58.63230 | 40.31164 | 33939 ft | 462 kts | 231° |
| 2026-04-18 04:27 | 58.58837 | 40.22085 | 33940 ft | 464 kts | 231° |
| 2026-04-18 04:28 | 58.54426 | 40.13005 | 33939 ft | 465 kts | 231° |
| 2026-04-18 04:28 | 58.50012 | 40.03958 | 33939 ft | 464 kts | 231° |
| 2026-04-18 04:29 | 58.45615 | 39.94986 | 33939 ft | 463 kts | 231° |
| 2026-04-18 04:29 | 58.41215 | 39.86038 | 33938 ft | 463 kts | 231° |
| 2026-04-18 04:30 | 58.36791 | 39.77078 | 33939 ft | 463 kts | 231° |
| 2026-04-18 04:30 | 58.32299 | 39.68238 | 33939 ft | 463 kts | 227° |
| 2026-04-18 04:31 | 58.27461 | 39.60072 | 33940 ft | 466 kts | 225° |
| 2026-04-18 04:31 | 58.22599 | 39.51953 | 33939 ft | 466 kts | 225° |
| 2026-04-18 04:32 | 58.17710 | 39.43770 | 33940 ft | 466 kts | 225° |
| 2026-04-18 04:32 | 58.12833 | 39.35619 | 33938 ft | 466 kts | 226° |
| 2026-04-18 04:33 | 58.07971 | 39.27500 | 33938 ft | 466 kts | 225° |
| 2026-04-18 04:33 | 58.03082 | 39.19367 | 33938 ft | 465 kts | 225° |
| 2026-04-18 04:34 | 57.98222 | 39.11297 | 33939 ft | 465 kts | 225° |
| 2026-04-18 04:34 | 57.93354 | 39.03250 | 33940 ft | 464 kts | 225° |
| 2026-04-18 04:35 | 57.88515 | 38.95284 | 33937 ft | 457 kts | 225° |
| 2026-04-18 04:35 | 57.83753 | 38.87473 | 33939 ft | 452 kts | 225° |
| 2026-04-18 04:36 | 57.79008 | 38.79718 | 33948 ft | 452 kts | 224° |
| 2026-04-18 04:36 | 57.74211 | 38.71900 | 33939 ft | 454 kts | 225° |
| 2026-04-18 04:37 | 57.69438 | 38.64164 | 33937 ft | 453 kts | 224° |
| 2026-04-18 04:37 | 57.64665 | 38.56452 | 33971 ft | 454 kts | 225° |
| 2026-04-18 04:38 | 57.59880 | 38.48744 | 34013 ft | 454 kts | 224° |
| 2026-04-18 04:38 | 57.55136 | 38.41110 | 34029 ft | 454 kts | 224° |
| 2026-04-18 04:39 | 57.50318 | 38.33410 | 34000 ft | 455 kts | 224° |
| 2026-04-18 04:39 | 57.45514 | 38.25748 | 33950 ft | 456 kts | 224° |
| 2026-04-18 04:40 | 57.40720 | 38.18139 | 33585 ft | 451 kts | 224° |
| 2026-04-18 04:40 | 57.38352 | 38.14383 | 32963 ft | 448 kts | 224° |
| 2026-04-18 04:40 | 57.35958 | 38.10600 | 32319 ft | 446 kts | 224° |
| 2026-04-18 04:40 | 57.33615 | 38.06903 | 31584 ft | 446 kts | 223° |
| 2026-04-18 04:41 | 57.31274 | 38.03211 | 30839 ft | 446 kts | 223° |
| 2026-04-18 04:41 | 57.28917 | 37.99505 | 30020 ft | 447 kts | 223° |
| 2026-04-18 04:41 | 57.26553 | 37.95788 | 29398 ft | 443 kts | 223° |
| 2026-04-18 04:41 | 57.24204 | 37.92104 | 28819 ft | 438 kts | 223° |
| 2026-04-18 04:42 | 57.21915 | 37.88521 | 28216 ft | 433 kts | 223° |
| 2026-04-18 04:42 | 57.19614 | 37.84931 | 27607 ft | 430 kts | 223° |
| 2026-04-18 04:42 | 57.17370 | 37.81438 | 27069 ft | 424 kts | 223° |
| 2026-04-18 04:42 | 57.15112 | 37.77929 | 26460 ft | 421 kts | 223° |
| 2026-04-18 04:43 | 57.12834 | 37.74579 | 25909 ft | 417 kts | 219° |
| 2026-04-18 04:43 | 57.10453 | 37.71663 | 25648 ft | 406 kts | 213° |
| 2026-04-18 04:43 | 57.07956 | 37.69329 | 25367 ft | 399 kts | 207° |
| 2026-04-18 04:43 | 57.05414 | 37.67337 | 24949 ft | 394 kts | 206° |
| 2026-04-18 04:44 | 57.02918 | 37.65442 | 24911 ft | 387 kts | 205° |
| 2026-04-18 04:44 | 57.00423 | 37.63560 | 24920 ft | 396 kts | 205° |
| 2026-04-18 04:44 | 56.97816 | 37.61604 | 24912 ft | 403 kts | 205° |
| 2026-04-18 04:44 | 56.95203 | 37.59654 | 24910 ft | 404 kts | 205° |
| 2026-04-18 04:45 | 56.92636 | 37.57749 | 24910 ft | 402 kts | 205° |
| 2026-04-18 04:45 | 56.90031 | 37.55821 | 24911 ft | 401 kts | 205° |
| 2026-04-18 04:45 | 56.87377 | 37.53860 | 24912 ft | 401 kts | 205° |
| 2026-04-18 04:45 | 56.84760 | 37.51932 | 24912 ft | 402 kts | 205° |
| 2026-04-18 04:46 | 56.82158 | 37.50017 | 24905 ft | 401 kts | 205° |
| 2026-04-18 04:46 | 56.79580 | 37.48127 | 24683 ft | 394 kts | 205° |
| 2026-04-18 04:46 | 56.77055 | 37.46278 | 24079 ft | 394 kts | 205° |
| 2026-04-18 04:46 | 56.74497 | 37.44405 | 23521 ft | 393 kts | 205° |
| 2026-04-18 04:47 | 56.72003 | 37.42583 | 22995 ft | 391 kts | 205° |
| 2026-04-18 04:47 | 56.69476 | 37.40738 | 22463 ft | 389 kts | 205° |
| 2026-04-18 04:47 | 56.66970 | 37.38912 | 21987 ft | 385 kts | 205° |
| 2026-04-18 04:47 | 56.64530 | 37.37090 | 21906 ft | 373 kts | 206° |
| 2026-04-18 04:48 | 56.62158 | 37.35288 | 21920 ft | 377 kts | 206° |
| 2026-04-18 04:48 | 56.59714 | 37.33428 | 21911 ft | 382 kts | 205° |
| 2026-04-18 04:48 | 56.57232 | 37.31544 | 21909 ft | 382 kts | 205° |
| 2026-04-18 04:48 | 56.54802 | 37.29706 | 21910 ft | 381 kts | 205° |
| 2026-04-18 04:49 | 56.52331 | 37.27878 | 21881 ft | 378 kts | 204° |
| 2026-04-18 04:49 | 56.49891 | 37.26177 | 21342 ft | 378 kts | 203° |
| 2026-04-18 04:49 | 56.47501 | 37.24349 | 20752 ft | 377 kts | 209° |
| 2026-04-18 04:49 | 56.45261 | 37.21926 | 20189 ft | 372 kts | 219° |
| 2026-04-18 04:50 | 56.43366 | 37.18872 | 19908 ft | 358 kts | 232° |
| 2026-04-18 04:50 | 56.41962 | 37.15274 | 19926 ft | 348 kts | 242° |
| 2026-04-18 04:50 | 56.40740 | 37.11419 | 19926 ft | 354 kts | 244° |
| 2026-04-18 04:50 | 56.39565 | 37.07501 | 19907 ft | 352 kts | 244° |
| 2026-04-18 04:51 | 56.38430 | 37.03651 | 19910 ft | 349 kts | 245° |
| 2026-04-18 04:51 | 56.37287 | 36.99748 | 19911 ft | 348 kts | 245° |
| 2026-04-18 04:51 | 56.36168 | 36.95909 | 19912 ft | 348 kts | 245° |
| 2026-04-18 04:51 | 56.34990 | 36.92125 | 19910 ft | 349 kts | 240° |
| 2026-04-18 04:52 | 56.33508 | 36.88602 | 19910 ft | 352 kts | 230° |
| 2026-04-18 04:52 | 56.31695 | 36.85598 | 19912 ft | 356 kts | 220° |
| 2026-04-18 04:52 | 56.29592 | 36.83260 | 19912 ft | 360 kts | 208° |
| 2026-04-18 04:52 | 56.27195 | 36.81770 | 19906 ft | 364 kts | 192° |
| 2026-04-18 04:53 | 56.24673 | 36.81551 | 19923 ft | 368 kts | 179° |
| 2026-04-18 04:53 | 56.22124 | 36.82018 | 19913 ft | 370 kts | 174° |
| 2026-04-18 04:53 | 56.19585 | 36.82731 | 19910 ft | 371 kts | 172° |
| 2026-04-18 04:53 | 56.17044 | 36.83574 | 19910 ft | 371 kts | 171° |
| 2026-04-18 04:54 | 56.14523 | 36.84494 | 19911 ft | 371 kts | 170° |
| 2026-04-18 04:54 | 56.12017 | 36.85458 | 19912 ft | 371 kts | 170° |
| 2026-04-18 04:54 | 56.09484 | 36.86467 | 19898 ft | 370 kts | 169° |
| 2026-04-18 04:54 | 56.07016 | 36.87473 | 19603 ft | 364 kts | 169° |
| 2026-04-18 04:55 | 56.04552 | 36.88492 | 19095 ft | 363 kts | 169° |
| 2026-04-18 04:55 | 56.02116 | 36.89507 | 18615 ft | 361 kts | 169° |
| 2026-04-18 04:55 | 55.99653 | 36.90536 | 18124 ft | 360 kts | 169° |
| 2026-04-18 04:56 | 55.94820 | 36.92530 | 17158 ft | 356 kts | 171° |
| 2026-04-18 04:56 | 55.92431 | 36.93193 | 16909 ft | 347 kts | 176° |
| 2026-04-18 04:56 | 55.90062 | 36.93694 | 16907 ft | 341 kts | 169° |
| 2026-04-18 04:56 | 55.87829 | 36.95080 | 16910 ft | 326 kts | 164° |
| 2026-04-18 04:57 | 55.85695 | 36.95746 | 16915 ft | 308 kts | 179° |
| 2026-04-18 04:57 | 55.83514 | 36.95909 | 16927 ft | 317 kts | 180° |
| 2026-04-18 04:57 | 55.81250 | 36.96102 | 16909 ft | 342 kts | 180° |
| 2026-04-18 04:57 | 55.78778 | 36.96328 | 16495 ft | 357 kts | 179° |
| 2026-04-18 04:58 | 55.76328 | 36.96555 | 15990 ft | 355 kts | 179° |
| 2026-04-18 04:58 | 55.73858 | 36.96784 | 15483 ft | 353 kts | 179° |
| 2026-04-18 04:58 | 55.71423 | 36.97007 | 14981 ft | 351 kts | 179° |
| 2026-04-18 04:58 | 55.69009 | 36.97225 | 14481 ft | 349 kts | 179° |
| 2026-04-18 04:59 | 55.66597 | 36.97442 | 13980 ft | 347 kts | 179° |
| 2026-04-18 04:59 | 55.64183 | 36.97657 | 13474 ft | 345 kts | 179° |
| 2026-04-18 04:59 | 55.61800 | 36.97870 | 12974 ft | 343 kts | 179° |
| 2026-04-18 04:59 | 55.59447 | 36.98079 | 12475 ft | 341 kts | 179° |
| 2026-04-18 05:00 | 55.57076 | 36.98290 | 11971 ft | 338 kts | 179° |
| 2026-04-18 05:00 | 55.54751 | 36.98496 | 11473 ft | 336 kts | 179° |
| 2026-04-18 05:00 | 55.52416 | 36.98702 | 10969 ft | 334 kts | 179° |
| 2026-04-18 05:00 | 55.50084 | 36.98908 | 10531 ft | 329 kts | 179° |
| 2026-04-18 05:01 | 55.47885 | 36.99107 | 10357 ft | 305 kts | 179° |
| 2026-04-18 05:01 | 55.45845 | 36.99292 | 10300 ft | 284 kts | 179° |
| 2026-04-18 05:01 | 55.43913 | 36.99462 | 10122 ft | 276 kts | 180° |
| 2026-04-18 05:01 | 55.42010 | 36.99626 | 9856 ft | 276 kts | 180° |
| 2026-04-18 05:02 | 55.40075 | 36.99539 | 9481 ft | 276 kts | 188° |
| 2026-04-18 05:02 | 55.38187 | 36.99215 | 9227 ft | 272 kts | 188° |
| 2026-04-18 05:02 | 55.36308 | 36.98891 | 8973 ft | 269 kts | 188° |
| 2026-04-18 05:02 | 55.34473 | 36.98560 | 8723 ft | 266 kts | 188° |
| 2026-04-18 05:03 | 55.32654 | 36.98221 | 8561 ft | 260 kts | 188° |
| 2026-04-18 05:03 | 55.30850 | 36.97881 | 8460 ft | 257 kts | 188° |
| 2026-04-18 05:03 | 55.29078 | 36.97544 | 8360 ft | 258 kts | 188° |
| 2026-04-18 05:03 | 55.27266 | 36.97323 | 8221 ft | 260 kts | 179° |
| 2026-04-18 05:04 | 55.25496 | 36.97930 | 8121 ft | 260 kts | 167° |
| 2026-04-18 05:04 | 55.23777 | 36.98766 | 8015 ft | 252 kts | 166° |
| 2026-04-18 05:04 | 55.22111 | 36.99591 | 7922 ft | 248 kts | 166° |
| 2026-04-18 05:04 | 55.20466 | 37.00425 | 7915 ft | 248 kts | 166° |
| 2026-04-18 05:05 | 55.18804 | 37.01278 | 7915 ft | 250 kts | 166° |
| 2026-04-18 05:05 | 55.17130 | 37.02143 | 7915 ft | 254 kts | 165° |
| 2026-04-18 05:05 | 55.15390 | 37.03042 | 7887 ft | 259 kts | 165° |
| 2026-04-18 05:05 | 55.13694 | 37.03921 | 7754 ft | 253 kts | 165° |
| 2026-04-18 05:06 | 55.12045 | 37.04938 | 7553 ft | 251 kts | 154° |
| 2026-04-18 05:06 | 55.10645 | 37.06722 | 7335 ft | 250 kts | 139° |
| 2026-04-18 05:06 | 55.09382 | 37.08771 | 7397 ft | 248 kts | 137° |
| 2026-04-18 05:06 | 55.08125 | 37.10850 | 7380 ft | 253 kts | 137° |
| 2026-04-18 05:07 | 55.06865 | 37.12965 | 7378 ft | 251 kts | 137° |
| 2026-04-18 05:07 | 55.05614 | 37.15077 | 7383 ft | 251 kts | 136° |
| 2026-04-18 05:07 | 55.04424 | 37.17352 | 7376 ft | 252 kts | 123° |
| 2026-04-18 05:07 | 55.03694 | 37.20120 | 7392 ft | 251 kts | 108° |
| 2026-04-18 05:08 | 55.03162 | 37.23007 | 7385 ft | 252 kts | 107° |
| 2026-04-18 05:08 | 55.02638 | 37.25954 | 7380 ft | 251 kts | 106° |
| 2026-04-18 05:08 | 55.02131 | 37.28871 | 7382 ft | 251 kts | 106° |
| 2026-04-18 05:08 | 55.01630 | 37.31799 | 7383 ft | 252 kts | 106° |
| 2026-04-18 05:09 | 55.01274 | 37.34789 | 7374 ft | 252 kts | 91° |
| 2026-04-18 05:09 | 55.01464 | 37.37769 | 7393 ft | 250 kts | 76° |
| 2026-04-18 05:09 | 55.01851 | 37.40771 | 7383 ft | 251 kts | 75° |
| 2026-04-18 05:09 | 55.02253 | 37.43715 | 7381 ft | 250 kts | 75° |
| 2026-04-18 05:10 | 55.02755 | 37.46593 | 7375 ft | 249 kts | 62° |
| 2026-04-18 05:10 | 55.03740 | 37.49036 | 7382 ft | 245 kts | 39° |
| 2026-04-18 05:10 | 55.05180 | 37.50516 | 7383 ft | 241 kts | 12° |
| 2026-04-18 05:10 | 55.06817 | 37.50559 | 7391 ft | 236 kts | 344° |
| 2026-04-18 05:11 | 55.08360 | 37.49597 | 7389 ft | 236 kts | 333° |
| 2026-04-18 05:11 | 55.09838 | 37.48295 | 7323 ft | 235 kts | 329° |
| 2026-04-18 05:11 | 55.11253 | 37.46931 | 7204 ft | 230 kts | 328° |
| 2026-04-18 05:11 | 55.12645 | 37.45551 | 7071 ft | 232 kts | 328° |
| 2026-04-18 05:12 | 55.14053 | 37.44141 | 6832 ft | 234 kts | 328° |
| 2026-04-18 05:12 | 55.15441 | 37.42747 | 6599 ft | 230 kts | 328° |
| 2026-04-18 05:12 | 55.16840 | 37.41339 | 6439 ft | 230 kts | 328° |
| 2026-04-18 05:12 | 55.18228 | 37.39941 | 6286 ft | 230 kts | 328° |
| 2026-04-18 05:13 | 55.19599 | 37.38559 | 6191 ft | 229 kts | 328° |
| 2026-04-18 05:13 | 55.21030 | 37.37237 | 6111 ft | 231 kts | 336° |
| 2026-04-18 05:13 | 55.22603 | 37.36698 | 6019 ft | 234 kts | 354° |
| 2026-04-18 05:13 | 55.24234 | 37.36664 | 5932 ft | 234 kts | 358° |
| 2026-04-18 05:14 | 55.25859 | 37.36729 | 5909 ft | 233 kts | 359° |
| 2026-04-18 05:14 | 55.27482 | 37.36815 | 5913 ft | 234 kts | 359° |
| 2026-04-18 05:14 | 55.29095 | 37.36906 | 5909 ft | 232 kts | 359° |
| 2026-04-18 05:14 | 55.30661 | 37.37001 | 5818 ft | 217 kts | 0° |
| 2026-04-18 05:15 | 55.32111 | 37.37455 | 5714 ft | 213 kts | 13° |
| 2026-04-18 05:15 | 55.33567 | 37.38088 | 5551 ft | 214 kts | 10° |
| 2026-04-18 05:15 | 55.34994 | 37.38697 | 5377 ft | 214 kts | 11° |
| 2026-04-18 05:15 | 55.36448 | 37.39360 | 5198 ft | 213 kts | 12° |
| 2026-04-18 05:16 | 55.37868 | 37.40029 | 5035 ft | 212 kts | 12° |
| 2026-04-18 05:16 | 55.39293 | 37.40707 | 4936 ft | 211 kts | 12° |
| 2026-04-18 05:16 | 55.40704 | 37.41381 | 4911 ft | 211 kts | 12° |
| 2026-04-18 05:16 | 55.42135 | 37.42065 | 4912 ft | 212 kts | 12° |
| 2026-04-18 05:17 | 55.43547 | 37.42742 | 4899 ft | 205 kts | 12° |
| 2026-04-18 05:17 | 55.44876 | 37.43382 | 4768 ft | 193 kts | 12° |
| 2026-04-18 05:17 | 55.46168 | 37.44000 | 4603 ft | 191 kts | 12° |
| 2026-04-18 05:17 | 55.47449 | 37.44614 | 4431 ft | 190 kts | 12° |
| 2026-04-18 05:18 | 55.48717 | 37.45221 | 4195 ft | 191 kts | 12° |
| 2026-04-18 05:18 | 55.49992 | 37.45834 | 3938 ft | 189 kts | 12° |
| 2026-04-18 05:18 | 55.51261 | 37.46446 | 3685 ft | 188 kts | 12° |
| 2026-04-18 05:18 | 55.52522 | 37.47055 | 3434 ft | 188 kts | 12° |
| 2026-04-18 05:19 | 55.53782 | 37.47665 | 3192 ft | 187 kts | 13° |
| 2026-04-18 05:19 | 55.55029 | 37.48270 | 2983 ft | 180 kts | 13° |
| 2026-04-18 05:19 | 55.56201 | 37.48840 | 2774 ft | 170 kts | 12° |
| 2026-04-18 05:19 | 55.57339 | 37.49391 | 2631 ft | 170 kts | 12° |
| 2026-04-18 05:20 | 55.58481 | 37.49901 | 2488 ft | 170 kts | 5° |
| 2026-04-18 05:20 | 55.59633 | 37.49694 | 2369 ft | 163 kts | 337° |
| 2026-04-18 05:20 | 55.60717 | 37.49040 | 2254 ft | 167 kts | 341° |
| 2026-04-18 05:20 | 55.61819 | 37.48403 | 2068 ft | 166 kts | 336° |
| 2026-04-18 05:21 | 55.62733 | 37.47251 | 1848 ft | 161 kts | 301° |
| 2026-04-18 05:21 | 55.62928 | 37.45396 | 1699 ft | 152 kts | 264° |
| 2026-04-18 05:21 | 55.62735 | 37.43518 | 1719 ft | 155 kts | 256° |
| 2026-04-18 05:21 | 55.62436 | 37.41676 | 1682 ft | 155 kts | 252° |
| 2026-04-18 05:22 | 55.62081 | 37.39867 | 1694 ft | 155 kts | 250° |
| 2026-04-18 05:22 | 55.61699 | 37.38088 | 1673 ft | 155 kts | 249° |
| 2026-04-18 05:22 | 55.61314 | 37.36356 | 1513 ft | 148 kts | 249° |
| 2026-04-18 05:22 | 55.60938 | 37.34692 | 1363 ft | 144 kts | 248° |
| 2026-04-18 05:23 | 55.60640 | 37.32950 | 1199 ft | 147 kts | 256° |
| 2026-04-18 05:23 | 55.60298 | 37.31233 | 972 ft | 147 kts | 246° |
| 2026-04-18 05:23 | 55.59927 | 37.29591 | 775 ft | 140 kts | 250° |
| 2026-04-18 05:23 | 55.59594 | 37.28061 | 699 ft | 126 kts | 248° |
| 2026-04-18 05:24 | 55.59300 | 37.26777 | 695 ft | 97 kts | 249° |
| 2026-04-18 05:24 | 55.59084 | 37.25816 | 694 ft | 70 kts | 249° |
| 2026-04-18 05:24 | 55.58987 | 37.25391 | 694 ft | 0 kts | 256° |
| 2026-04-18 05:24 | 55.58991 | 37.25362 | 694 ft | 2 kts | 295° |
| 2026-04-18 05:25 | 55.58998 | 37.25341 | 694 ft | 1 kts | 309° |
| 2026-04-18 05:25 | 55.59004 | 37.25327 | 694 ft | 3 kts | 305° |
| 2026-04-18 05:25 | 55.59021 | 37.25269 | 694 ft | 5 kts | 292° |
| 2026-04-18 05:25 | 55.59031 | 37.25212 | 694 ft | 3 kts | 281° |
| 2026-04-18 05:26 | 55.59034 | 37.25177 | 694 ft | 3 kts | 278° |
| 2026-04-18 05:26 | 55.59040 | 37.25124 | 694 ft | 4 kts | 288° |
| 2026-04-18 05:26 | 55.59057 | 37.25081 | 694 ft | 5 kts | 316° |
| 2026-04-18 05:26 | 55.59084 | 37.25043 | 694 ft | 4 kts | 328° |
| 2026-04-18 05:27 | 55.59104 | 37.25024 | 694 ft | 3 kts | 333° |
| 2026-04-18 05:27 | 55.59128 | 37.25005 | 694 ft | 3 kts | 337° |
| 2026-04-18 05:27 | 55.59155 | 37.24981 | 694 ft | 6 kts | 332° |
| 2026-04-18 05:27 | 55.59193 | 37.24964 | 694 ft | 4 kts | 14° |
| 2026-04-18 05:28 | 55.59208 | 37.24974 | 694 ft | 0 kts | 21° |